Search for airport 
image banner adimage banner adimage banner ad
image banner ad

IA16 - Picayune

Located in Iowa City, United States

ICAO - IA16, IATA -

Data provided by Airmate  

General information

Coordinates: N41°42'30" W91°30'1"
Elevation is 800 feet MSL.
Magnetic variation is 02° East
View others Airports in Iowa

Operational data

Special qualification required
Current time UTC:
Current local time:
Weather at : KIOW - Iowa City Muni ( 9 km )
METAR: KIOW 150852Z AUTO 00000KT 10SM CLR 17/12 A3008 RMK AO2 SLP181 T01670122 53004
View NOTAMs / SUP AIP / TFR affecting this airport [VIEW]
Communications frequencies: [VIEW]

Runways:

RWY identifierQFULength (ft)Width (ft)SurfaceLDA (ft)
06180075GRASS
24180075GRASS

Airport contact information

Address: Iowa City United States

Satellite view of IA16